sensor_id;sensor_type;location;lat;lon;timestamp;P1;durP1;ratioP1;P2;durP2;ratioP2
21941;SDS011;11135;54.192;15.670;2022-07-01T00:03:20;8.52;;;7.13;;
21941;SDS011;11135;54.192;15.670;2022-07-01T00:09:24;7.93;;;7.13;;
21941;SDS011;11135;54.192;15.670;2022-07-01T00:15:30;8.98;;;8.07;;
21941;SDS011;11135;54.192;15.670;2022-07-01T00:21:34;9.38;;;8.00;;
21941;SDS011;11135;54.192;15.670;2022-07-01T00:27:40;9.57;;;8.57;;
21941;SDS011;11135;54.192;15.670;2022-07-01T00:33:46;8.50;;;7.70;;
21941;SDS011;11135;54.192;15.670;2022-07-01T00:39:50;9.70;;;8.70;;
21941;SDS011;11135;54.192;15.670;2022-07-01T00:45:53;9.15;;;8.25;;
21941;SDS011;11135;54.192;15.670;2022-07-01T00:51:59;8.63;;;7.80;;
21941;SDS011;11135;54.192;15.670;2022-07-01T00:58:02;10.15;;;9.10;;
21941;SDS011;11135;54.192;15.670;2022-07-01T01:04:06;8.80;;;8.00;;
21941;SDS011;11135;54.192;15.670;2022-07-01T01:10:11;7.63;;;6.93;;
21941;SDS011;11135;54.192;15.670;2022-07-01T01:16:15;9.15;;;8.15;;
21941;SDS011;11135;54.192;15.670;2022-07-01T01:22:22;11.20;;;8.18;;
21941;SDS011;11135;54.192;15.670;2022-07-01T01:28:26;8.70;;;7.80;;
21941;SDS011;11135;54.192;15.670;2022-07-01T01:34:30;8.90;;;8.00;;
21941;SDS011;11135;54.192;15.670;2022-07-01T01:40:35;6.85;;;6.15;;
21941;SDS011;11135;54.192;15.670;2022-07-01T01:46:39;7.60;;;6.90;;
21941;SDS011;11135;54.192;15.670;2022-07-01T01:52:43;6.97;;;6.38;;
21941;SDS011;11135;54.192;15.670;2022-07-01T01:58:48;7.40;;;6.70;;
21941;SDS011;11135;54.192;15.670;2022-07-01T02:04:52;7.40;;;6.70;;
21941;SDS011;11135;54.192;15.670;2022-07-01T02:10:55;8.40;;;7.60;;
21941;SDS011;11135;54.192;15.670;2022-07-01T02:17:05;9.30;;;7.18;;
21941;SDS011;11135;54.192;15.670;2022-07-01T02:23:09;8.23;;;7.05;;
21941;SDS011;11135;54.192;15.670;2022-07-01T02:35:18;6.30;;;5.70;;
21941;SDS011;11135;54.192;15.670;2022-07-01T02:41:22;6.28;;;5.63;;
21941;SDS011;11135;54.192;15.670;2022-07-01T02:47:30;9.50;;;6.47;;
21941;SDS011;11135;54.192;15.670;2022-07-01T02:53:35;6.55;;;5.82;;
21941;SDS011;11135;54.192;15.670;2022-07-01T02:59:39;6.15;;;5.55;;
21941;SDS011;11135;54.192;15.670;2022-07-01T03:05:42;6.00;;;5.38;;
21941;SDS011;11135;54.192;15.670;2022-07-01T03:11:52;6.43;;;5.82;;
21941;SDS011;11135;54.192;15.670;2022-07-01T03:17:56;6.47;;;5.75;;
21941;SDS011;11135;54.192;15.670;2022-07-01T03:23:59;6.00;;;5.40;;
21941;SDS011;11135;54.192;15.670;2022-07-01T03:36:12;5.78;;;5.22;;
21941;SDS011;11135;54.192;15.670;2022-07-01T03:42:16;5.70;;;5.20;;
21941;SDS011;11135;54.192;15.670;2022-07-01T04:00:41;6.03;;;5.40;;
21941;SDS011;11135;54.192;15.670;2022-07-01T04:06:46;5.90;;;5.30;;
21941;SDS011;11135;54.192;15.670;2022-07-01T04:12:50;7.28;;;5.50;;
21941;SDS011;11135;54.192;15.670;2022-07-01T04:19:14;5.20;;;4.70;;
21941;SDS011;11135;54.192;15.670;2022-07-01T04:25:19;5.32;;;4.82;;
21941;SDS011;11135;54.192;15.670;2022-07-01T04:31:23;5.20;;;4.70;;
21941;SDS011;11135;54.192;15.670;2022-07-01T04:37:27;4.78;;;4.28;;
21941;SDS011;11135;54.192;15.670;2022-07-01T04:43:32;4.60;;;4.13;;
21941;SDS011;11135;54.192;15.670;2022-07-01T04:49:36;5.18;;;4.55;;
21941;SDS011;11135;54.192;15.670;2022-07-01T04:55:39;15.27;;;8.77;;
21941;SDS011;11135;54.192;15.670;2022-07-01T05:01:45;9.03;;;5.50;;
21941;SDS011;11135;54.192;15.670;2022-07-01T05:07:50;7.47;;;5.30;;
21941;SDS011;11135;54.192;15.670;2022-07-01T05:13:54;5.57;;;4.83;;
21941;SDS011;11135;54.192;15.670;2022-07-01T05:19:59;7.73;;;5.37;;
21941;SDS011;11135;54.192;15.670;2022-07-01T05:26:16;5.43;;;4.70;;
21941;SDS011;11135;54.192;15.670;2022-07-01T05:32:20;5.50;;;4.57;;
21941;SDS011;11135;54.192;15.670;2022-07-01T05:38:25;4.97;;;4.47;;
21941;SDS011;11135;54.192;15.670;2022-07-01T05:44:28;4.93;;;4.43;;
21941;SDS011;11135;54.192;15.670;2022-07-01T05:50:32;6.03;;;5.03;;
21941;SDS011;11135;54.192;15.670;2022-07-01T05:56:37;5.15;;;4.65;;
21941;SDS011;11135;54.192;15.670;2022-07-01T06:02:40;5.30;;;4.80;;
21941;SDS011;11135;54.192;15.670;2022-07-01T06:08:44;5.75;;;4.55;;
21941;SDS011;11135;54.192;15.670;2022-07-01T06:14:50;7.90;;;5.72;;
21941;SDS011;11135;54.192;15.670;2022-07-01T06:20:53;5.95;;;5.35;;
21941;SDS011;11135;54.192;15.670;2022-07-01T06:26:57;5.40;;;4.90;;
21941;SDS011;11135;54.192;15.670;2022-07-01T06:33:03;5.50;;;5.00;;
21941;SDS011;11135;54.192;15.670;2022-07-01T06:39:06;5.78;;;4.93;;
21941;SDS011;11135;54.192;15.670;2022-07-01T06:45:10;5.27;;;4.77;;
21941;SDS011;11135;54.192;15.670;2022-07-01T06:51:15;5.82;;;4.90;;
21941;SDS011;11135;54.192;15.670;2022-07-01T06:57:19;6.18;;;5.55;;
21941;SDS011;11135;54.192;15.670;2022-07-01T07:03:23;5.22;;;4.72;;
21941;SDS011;11135;54.192;15.670;2022-07-01T07:09:28;5.63;;;4.85;;
21941;SDS011;11135;54.192;15.670;2022-07-01T07:15:31;4.80;;;4.40;;
21941;SDS011;11135;54.192;15.670;2022-07-01T07:21:35;5.65;;;3.80;;
21941;SDS011;11135;54.192;15.670;2022-07-01T07:27:40;4.72;;;4.22;;
21941;SDS011;11135;54.192;15.670;2022-07-01T07:33:44;4.95;;;4.13;;
21941;SDS011;11135;54.192;15.670;2022-07-01T07:39:48;4.78;;;4.28;;
21941;SDS011;11135;54.192;15.670;2022-07-01T07:45:53;4.60;;;3.77;;
21941;SDS011;11135;54.192;15.670;2022-07-01T07:51:56;4.40;;;4.00;;
21941;SDS011;11135;54.192;15.670;2022-07-01T07:58:00;4.80;;;4.13;;
21941;SDS011;11135;54.192;15.670;2022-07-01T08:04:05;5.53;;;3.90;;
21941;SDS011;11135;54.192;15.670;2022-07-01T08:10:09;5.28;;;4.20;;
21941;SDS011;11135;54.192;15.670;2022-07-01T08:16:14;4.57;;;4.18;;
21941;SDS011;11135;54.192;15.670;2022-07-01T08:22:19;6.53;;;4.70;;
21941;SDS011;11135;54.192;15.670;2022-07-01T08:28:23;4.93;;;4.43;;
21941;SDS011;11135;54.192;15.670;2022-07-01T08:34:26;4.30;;;3.90;;
21941;SDS011;11135;54.192;15.670;2022-07-01T08:40:31;6.97;;;5.00;;
21941;SDS011;11135;54.192;15.670;2022-07-01T08:46:35;5.13;;;4.22;;
21941;SDS011;11135;54.192;15.670;2022-07-01T08:52:39;5.35;;;4.88;;
21941;SDS011;11135;54.192;15.670;2022-07-01T08:58:44;5.68;;;5.18;;
21941;SDS011;11135;54.192;15.670;2022-07-01T09:04:49;5.20;;;4.22;;
21941;SDS011;11135;54.192;15.670;2022-07-01T09:11:11;6.90;;;6.20;;
21941;SDS011;11135;54.192;15.670;2022-07-01T09:17:19;6.22;;;5.63;;
21941;SDS011;11135;54.192;15.670;2022-07-01T09:23:23;7.15;;;6.45;;
21941;SDS011;11135;54.192;15.670;2022-07-01T09:29:28;6.43;;;5.93;;
21941;SDS011;11135;54.192;15.670;2022-07-01T09:35:37;8.88;;;6.85;;
21941;SDS011;11135;54.192;15.670;2022-07-01T09:41:41;8.00;;;7.20;;
21941;SDS011;11135;54.192;15.670;2022-07-01T09:47:47;7.18;;;6.47;;
21941;SDS011;11135;54.192;15.670;2022-07-01T09:53:52;7.82;;;5.70;;
21941;SDS011;11135;54.192;15.670;2022-07-01T09:59:57;8.45;;;6.00;;
21941;SDS011;11135;54.192;15.670;2022-07-01T10:06:07;8.48;;;5.15;;
21941;SDS011;11135;54.192;15.670;2022-07-01T10:18:46;9.15;;;4.63;;
21941;SDS011;11135;54.192;15.670;2022-07-01T10:24:50;8.32;;;5.40;;
21941;SDS011;11135;54.192;15.670;2022-07-01T10:30:56;11.65;;;5.32;;
21941;SDS011;11135;54.192;15.670;2022-07-01T10:37:04;12.57;;;5.53;;
21941;SDS011;11135;54.192;15.670;2022-07-01T10:43:10;9.55;;;4.63;;
21941;SDS011;11135;54.192;15.670;2022-07-01T10:55:49;11.25;;;4.85;;
21941;SDS011;11135;54.192;15.670;2022-07-01T11:01:59;9.90;;;5.70;;
21941;SDS011;11135;54.192;15.670;2022-07-01T11:08:13;12.13;;;4.68;;
21941;SDS011;11135;54.192;15.670;2022-07-01T11:14:24;7.53;;;4.07;;
21941;SDS011;11135;54.192;15.670;2022-07-01T11:20:29;7.22;;;3.53;;
21941;SDS011;11135;54.192;15.670;2022-07-01T11:26:35;7.32;;;4.03;;
21941;SDS011;11135;54.192;15.670;2022-07-01T11:32:41;7.25;;;3.92;;
21941;SDS011;11135;54.192;15.670;2022-07-01T11:38:46;6.82;;;4.53;;
21941;SDS011;11135;54.192;15.670;2022-07-01T11:45:08;5.85;;;3.63;;
21941;SDS011;11135;54.192;15.670;2022-07-01T11:51:14;6.57;;;3.53;;
21941;SDS011;11135;54.192;15.670;2022-07-01T11:57:20;6.00;;;3.53;;
21941;SDS011;11135;54.192;15.670;2022-07-01T12:03:30;4.05;;;3.08;;
21941;SDS011;11135;54.192;15.670;2022-07-01T12:09:38;4.68;;;3.65;;
21941;SDS011;11135;54.192;15.670;2022-07-01T12:15:42;5.45;;;3.80;;
21941;SDS011;11135;54.192;15.670;2022-07-01T12:21:47;6.45;;;3.78;;
21941;SDS011;11135;54.192;15.670;2022-07-01T12:27:53;4.35;;;3.78;;
21941;SDS011;11135;54.192;15.670;2022-07-01T12:33:59;5.57;;;4.28;;
21941;SDS011;11135;54.192;15.670;2022-07-01T12:48:24;4.75;;;4.13;;
21941;SDS011;11135;54.192;15.670;2022-07-01T12:54:28;5.15;;;4.35;;
21941;SDS011;11135;54.192;15.670;2022-07-01T13:00:33;5.25;;;4.03;;
21941;SDS011;11135;54.192;15.670;2022-07-01T13:06:38;5.18;;;4.13;;
21941;SDS011;11135;54.192;15.670;2022-07-01T13:12:42;5.50;;;4.43;;
21941;SDS011;11135;54.192;15.670;2022-07-01T13:18:47;5.30;;;4.43;;
21941;SDS011;11135;54.192;15.670;2022-07-01T13:24:52;4.93;;;4.40;;
21941;SDS011;11135;54.192;15.670;2022-07-01T13:30:55;6.10;;;5.25;;
21941;SDS011;11135;54.192;15.670;2022-07-01T13:36:59;5.93;;;5.32;;
21941;SDS011;11135;54.192;15.670;2022-07-01T13:49:08;6.63;;;6.03;;
21941;SDS011;11135;54.192;15.670;2022-07-01T13:55:11;5.90;;;5.30;;
21941;SDS011;11135;54.192;15.670;2022-07-01T14:01:16;6.75;;;5.55;;
21941;SDS011;11135;54.192;15.670;2022-07-01T14:07:20;6.50;;;5.90;;
21941;SDS011;11135;54.192;15.670;2022-07-01T14:13:24;6.25;;;5.65;;
21941;SDS011;11135;54.192;15.670;2022-07-01T14:19:29;6.20;;;5.35;;
21941;SDS011;11135;54.192;15.670;2022-07-01T14:25:32;6.20;;;5.60;;
21941;SDS011;11135;54.192;15.670;2022-07-01T14:31:36;6.38;;;5.78;;
21941;SDS011;11135;54.192;15.670;2022-07-01T14:37:41;6.93;;;6.32;;
21941;SDS011;11135;54.192;15.670;2022-07-01T14:43:45;7.65;;;6.95;;
21941;SDS011;11135;54.192;15.670;2022-07-01T14:49:48;8.15;;;7.35;;
21941;SDS011;11135;54.192;15.670;2022-07-01T14:55:55;9.43;;;8.63;;
21941;SDS011;11135;54.192;15.670;2022-07-01T15:01:58;8.60;;;7.80;;
21941;SDS011;11135;54.192;15.670;2022-07-01T15:08:05;9.00;;;6.68;;
21941;SDS011;11135;54.192;15.670;2022-07-01T15:14:10;8.93;;;5.13;;
21941;SDS011;11135;54.192;15.670;2022-07-01T15:20:14;8.88;;;5.40;;
21941;SDS011;11135;54.192;15.670;2022-07-01T15:26:18;11.25;;;5.70;;
21941;SDS011;11135;54.192;15.670;2022-07-01T15:32:25;8.25;;;5.40;;
21941;SDS011;11135;54.192;15.670;2022-07-01T15:38:31;9.35;;;5.55;;
21941;SDS011;11135;54.192;15.670;2022-07-01T15:44:34;6.80;;;5.50;;
21941;SDS011;11135;54.192;15.670;2022-07-01T15:50:40;6.97;;;5.18;;
21941;SDS011;11135;54.192;15.670;2022-07-01T15:56:45;8.30;;;5.70;;
21941;SDS011;11135;54.192;15.670;2022-07-01T16:02:48;9.77;;;6.40;;
21941;SDS011;11135;54.192;15.670;2022-07-01T16:08:54;236.95;;;98.28;;
21941;SDS011;11135;54.192;15.670;2022-07-01T16:15:03;167.88;;;70.40;;
21941;SDS011;11135;54.192;15.670;2022-07-01T16:21:08;82.45;;;39.00;;
21941;SDS011;11135;54.192;15.670;2022-07-01T16:27:15;99.90;;;42.28;;
21941;SDS011;11135;54.192;15.670;2022-07-01T16:33:19;88.32;;;37.58;;
21941;SDS011;11135;54.192;15.670;2022-07-01T16:39:23;88.80;;;37.47;;
21941;SDS011;11135;54.192;15.670;2022-07-01T16:45:29;82.97;;;34.97;;
21941;SDS011;11135;54.192;15.670;2022-07-01T16:51:39;77.85;;;35.10;;
21941;SDS011;11135;54.192;15.670;2022-07-01T16:57:46;81.53;;;36.60;;
21941;SDS011;11135;54.192;15.670;2022-07-01T17:04:01;74.50;;;35.58;;
21941;SDS011;11135;54.192;15.670;2022-07-01T17:10:06;69.88;;;34.55;;
21941;SDS011;11135;54.192;15.670;2022-07-01T17:16:12;75.57;;;35.70;;
21941;SDS011;11135;54.192;15.670;2022-07-01T17:22:27;80.15;;;35.83;;
21941;SDS011;11135;54.192;15.670;2022-07-01T17:28:40;83.38;;;36.50;;
21941;SDS011;11135;54.192;15.670;2022-07-01T17:34:48;79.63;;;35.65;;
21941;SDS011;11135;54.192;15.670;2022-07-01T17:40:53;164.65;;;36.15;;
21941;SDS011;11135;54.192;15.670;2022-07-01T17:46:59;111.28;;;34.03;;
21941;SDS011;11135;54.192;15.670;2022-07-01T17:53:04;78.32;;;31.77;;
21941;SDS011;11135;54.192;15.670;2022-07-01T17:59:11;73.28;;;29.83;;
21941;SDS011;11135;54.192;15.670;2022-07-01T18:05:16;61.97;;;28.65;;
21941;SDS011;11135;54.192;15.670;2022-07-01T18:17:32;58.85;;;27.80;;
21941;SDS011;11135;54.192;15.670;2022-07-01T18:23:45;57.90;;;26.42;;
21941;SDS011;11135;54.192;15.670;2022-07-01T18:29:52;54.88;;;25.27;;
21941;SDS011;11135;54.192;15.670;2022-07-01T18:36:00;52.35;;;23.33;;
21941;SDS011;11135;54.192;15.670;2022-07-01T18:42:07;42.95;;;22.65;;
21941;SDS011;11135;54.192;15.670;2022-07-01T18:48:11;45.22;;;21.55;;
21941;SDS011;11135;54.192;15.670;2022-07-01T18:54:17;44.42;;;21.58;;
21941;SDS011;11135;54.192;15.670;2022-07-01T19:00:22;33.97;;;18.70;;
21941;SDS011;11135;54.192;15.670;2022-07-01T19:06:29;37.13;;;21.00;;
21941;SDS011;11135;54.192;15.670;2022-07-01T19:12:34;37.72;;;18.55;;
21941;SDS011;11135;54.192;15.670;2022-07-01T19:18:38;34.88;;;18.35;;
21941;SDS011;11135;54.192;15.670;2022-07-01T19:24:42;31.63;;;16.80;;
21941;SDS011;11135;54.192;15.670;2022-07-01T19:30:50;33.28;;;17.00;;
21941;SDS011;11135;54.192;15.670;2022-07-01T19:36:55;28.60;;;16.50;;
21941;SDS011;11135;54.192;15.670;2022-07-01T19:42:58;30.33;;;15.23;;
21941;SDS011;11135;54.192;15.670;2022-07-01T19:49:06;29.50;;;16.05;;
21941;SDS011;11135;54.192;15.670;2022-07-01T19:55:10;31.00;;;15.95;;
21941;SDS011;11135;54.192;15.670;2022-07-01T20:01:15;27.35;;;14.45;;
21941;SDS011;11135;54.192;15.670;2022-07-01T20:07:20;30.15;;;15.73;;
21941;SDS011;11135;54.192;15.670;2022-07-01T20:13:24;25.77;;;15.35;;
21941;SDS011;11135;54.192;15.670;2022-07-01T20:19:29;29.48;;;15.40;;
21941;SDS011;11135;54.192;15.670;2022-07-01T20:25:34;25.95;;;14.00;;
21941;SDS011;11135;54.192;15.670;2022-07-01T20:31:37;27.23;;;14.05;;
21941;SDS011;11135;54.192;15.670;2022-07-01T20:37:41;21.77;;;12.52;;
21941;SDS011;11135;54.192;15.670;2022-07-01T20:43:46;18.65;;;12.27;;
21941;SDS011;11135;54.192;15.670;2022-07-01T20:49:50;21.80;;;12.18;;
21941;SDS011;11135;54.192;15.670;2022-07-01T20:55:53;19.70;;;11.80;;
21941;SDS011;11135;54.192;15.670;2022-07-01T21:01:58;20.90;;;11.43;;
21941;SDS011;11135;54.192;15.670;2022-07-01T21:08:22;21.35;;;12.23;;
21941;SDS011;11135;54.192;15.670;2022-07-01T21:14:26;18.70;;;10.98;;
21941;SDS011;11135;54.192;15.670;2022-07-01T21:20:33;18.27;;;10.38;;
21941;SDS011;11135;54.192;15.670;2022-07-01T21:26:36;17.95;;;9.75;;
21941;SDS011;11135;54.192;15.670;2022-07-01T21:32:40;17.40;;;9.00;;
21941;SDS011;11135;54.192;15.670;2022-07-01T21:38:45;17.17;;;9.27;;
21941;SDS011;11135;54.192;15.670;2022-07-01T21:44:51;14.48;;;8.63;;
21941;SDS011;11135;54.192;15.670;2022-07-01T21:50:55;15.13;;;8.45;;
21941;SDS011;11135;54.192;15.670;2022-07-01T21:57:04;14.73;;;8.82;;
21941;SDS011;11135;54.192;15.670;2022-07-01T22:03:10;14.10;;;8.38;;
21941;SDS011;11135;54.192;15.670;2022-07-01T22:09:16;14.90;;;7.90;;
21941;SDS011;11135;54.192;15.670;2022-07-01T22:15:21;14.43;;;8.27;;
21941;SDS011;11135;54.192;15.670;2022-07-01T22:21:25;12.80;;;7.45;;
21941;SDS011;11135;54.192;15.670;2022-07-01T22:27:29;11.55;;;7.55;;
21941;SDS011;11135;54.192;15.670;2022-07-01T22:33:35;12.88;;;6.97;;
21941;SDS011;11135;54.192;15.670;2022-07-01T22:39:43;12.32;;;6.40;;
21941;SDS011;11135;54.192;15.670;2022-07-01T22:45:49;10.68;;;6.20;;
21941;SDS011;11135;54.192;15.670;2022-07-01T22:52:01;11.75;;;5.70;;
21941;SDS011;11135;54.192;15.670;2022-07-01T22:58:14;10.60;;;5.78;;
21941;SDS011;11135;54.192;15.670;2022-07-01T23:04:20;11.13;;;5.95;;
21941;SDS011;11135;54.192;15.670;2022-07-01T23:10:28;10.45;;;5.75;;
21941;SDS011;11135;54.192;15.670;2022-07-01T23:16:36;10.70;;;5.45;;
21941;SDS011;11135;54.192;15.670;2022-07-01T23:22:41;9.63;;;5.47;;
21941;SDS011;11135;54.192;15.670;2022-07-01T23:28:56;9.85;;;5.20;;
21941;SDS011;11135;54.192;15.670;2022-07-01T23:35:09;8.10;;;5.15;;
21941;SDS011;11135;54.192;15.670;2022-07-01T23:41:13;8.38;;;4.75;;
21941;SDS011;11135;54.192;15.670;2022-07-01T23:47:20;8.60;;;4.95;;
21941;SDS011;11135;54.192;15.670;2022-07-01T23:53:23;7.80;;;3.97;;
21941;SDS011;11135;54.192;15.670;2022-07-01T23:59:27;8.85;;;4.22;;
